createdAt,value
2022-07-31T00:01:04.329Z,51.88
2022-07-31T00:03:32.803Z,52.18
2022-07-31T00:06:01.390Z,51.75
2022-07-31T00:08:29.880Z,51.74
2022-07-31T00:10:58.357Z,51.69
2022-07-31T00:13:57.216Z,51.86
2022-07-31T00:16:17.411Z,51.87
2022-07-31T00:18:45.845Z,51.95
2022-07-31T00:21:15.136Z,52.00
2022-07-31T00:23:43.617Z,51.71
2022-07-31T00:26:12.088Z,52.01
2022-07-31T00:28:40.668Z,52.03
2022-07-31T00:31:09.164Z,51.94
2022-07-31T00:33:39.101Z,51.82
2022-07-31T00:36:08.171Z,51.86
2022-07-31T00:38:36.799Z,51.92
2022-07-31T00:41:05.225Z,51.92
2022-07-31T00:43:33.656Z,52.05
2022-07-31T00:46:02.138Z,51.99
2022-07-31T00:48:31.212Z,51.76
2022-07-31T00:51:01.544Z,51.87
2022-07-31T00:53:29.977Z,51.88
2022-07-31T00:55:58.545Z,52.08
2022-07-31T00:58:27.014Z,52.02
2022-07-31T01:00:55.514Z,51.74
2022-07-31T01:03:23.991Z,51.81
2022-07-31T01:05:52.413Z,51.81
2022-07-31T01:08:22.285Z,51.96
2022-07-31T01:10:55.624Z,51.79
2022-07-31T01:13:32.225Z,51.72
2022-07-31T01:16:01.363Z,51.84
2022-07-31T01:18:31.785Z,51.78
2022-07-31T01:21:03.339Z,51.72
2022-07-31T01:23:55.240Z,51.68
2022-07-31T01:26:35.986Z,51.67
2022-07-31T01:29:20.322Z,51.89
2022-07-31T01:31:53.639Z,51.89
2022-07-31T01:34:27.112Z,52.08
2022-07-31T01:37:05.103Z,52.00
2022-07-31T01:39:34.982Z,52.00
2022-07-31T01:42:06.379Z,52.15
2022-07-31T01:44:42.601Z,51.88
2022-07-31T01:47:11.740Z,52.00
2022-07-31T01:49:40.236Z,51.85
2022-07-31T01:52:09.122Z,51.84
2022-07-31T01:54:37.569Z,52.01
2022-07-31T01:57:06.235Z,52.02
2022-07-31T01:59:35.290Z,51.67
2022-07-31T02:02:06.386Z,51.69
2022-07-31T02:04:38.321Z,51.63
2022-07-31T02:07:08.361Z,51.80
2022-07-31T02:09:37.057Z,51.62
2022-07-31T02:12:09.678Z,51.72
2022-07-31T02:14:38.491Z,51.69
2022-07-31T02:17:08.548Z,51.79
2022-07-31T02:19:37.446Z,51.60
2022-07-31T02:22:06.868Z,51.62
2022-07-31T02:24:35.501Z,51.38
2022-07-31T02:27:03.951Z,51.59
2022-07-31T02:29:34.511Z,51.60
2022-07-31T02:32:03.720Z,51.28
2022-07-31T02:34:33.970Z,51.43
2022-07-31T02:37:02.773Z,51.48
2022-07-31T02:39:31.955Z,51.43
2022-07-31T02:42:02.083Z,51.53
2022-07-31T02:44:32.298Z,51.51
2022-07-31T02:47:02.677Z,51.27
2022-07-31T02:49:31.483Z,51.15
2022-07-31T02:52:01.834Z,51.38
2022-07-31T02:54:30.673Z,51.32
2022-07-31T02:56:59.588Z,51.19
2022-07-31T02:59:28.097Z,51.05
2022-07-31T03:01:56.541Z,50.83
2022-07-31T03:04:25.525Z,51.17
2022-07-31T03:06:54.030Z,51.06
2022-07-31T03:09:23.969Z,51.00
2022-07-31T03:11:52.632Z,51.25
2022-07-31T03:14:21.143Z,50.82
2022-07-31T03:16:49.710Z,50.72
2022-07-31T03:19:18.427Z,50.93
2022-07-31T03:21:47.096Z,50.68
2022-07-31T03:24:15.562Z,50.72
2022-07-31T03:26:45.534Z,50.64
2022-07-31T03:29:39.109Z,50.76
2022-07-31T03:32:02.855Z,50.78
2022-07-31T03:34:31.750Z,50.51
2022-07-31T03:37:00.515Z,50.54
2022-07-31T03:39:29.006Z,50.58
2022-07-31T03:41:59.009Z,50.55
2022-07-31T03:44:27.539Z,50.50
2022-07-31T03:46:56.163Z,50.23
2022-07-31T03:49:24.860Z,50.45
2022-07-31T03:51:53.865Z,50.45
2022-07-31T03:54:22.313Z,50.21
2022-07-31T03:56:51.819Z,50.30
2022-07-31T03:59:22.171Z,49.95
2022-07-31T04:02:07.525Z,50.33
2022-07-31T04:04:39.171Z,50.23
2022-07-31T04:07:07.749Z,50.21
2022-07-31T04:09:36.466Z,50.06
2022-07-31T04:12:06.257Z,50.08
2022-07-31T04:14:36.297Z,50.24
2022-07-31T04:17:05.176Z,49.94
2022-07-31T04:19:34.166Z,50.12
2022-07-31T04:22:04.652Z,50.06
2022-07-31T04:24:33.461Z,49.89
2022-07-31T04:27:02.048Z,49.91
2022-07-31T04:29:30.584Z,50.01
2022-07-31T04:32:00.642Z,49.84
2022-07-31T04:34:29.246Z,50.09
2022-07-31T04:36:58.885Z,50.09
2022-07-31T04:39:27.350Z,50.06
2022-07-31T04:41:56.134Z,49.84
2022-07-31T04:44:24.632Z,49.97
2022-07-31T04:46:53.117Z,49.92
2022-07-31T04:49:23.117Z,49.58
2022-07-31T04:51:51.858Z,49.78
2022-07-31T04:54:20.287Z,49.70
2022-07-31T04:56:48.879Z,49.75
2022-07-31T04:59:20.288Z,49.61
2022-07-31T05:01:49.179Z,49.63
2022-07-31T05:04:17.900Z,49.58
2022-07-31T05:06:48.893Z,49.71
2022-07-31T05:09:19.598Z,49.46
2022-07-31T05:11:52.689Z,49.36
2022-07-31T05:14:29.260Z,49.51
2022-07-31T05:16:57.866Z,49.55
2022-07-31T05:19:29.822Z,49.70
2022-07-31T05:22:02.547Z,49.63
2022-07-31T05:24:33.502Z,49.17
2022-07-31T05:27:03.162Z,49.39
2022-07-31T05:29:31.999Z,49.35
2022-07-31T05:32:01.237Z,49.27
2022-07-31T05:34:30.779Z,49.24
2022-07-31T05:37:02.299Z,49.32
2022-07-31T05:39:31.048Z,48.83
2022-07-31T05:41:59.697Z,49.04
2022-07-31T05:44:28.215Z,48.91
2022-07-31T05:49:26.871Z,48.89
2022-07-31T05:51:55.551Z,48.68
2022-07-31T05:54:25.510Z,48.96
2022-07-31T05:56:54.104Z,48.79
2022-07-31T05:59:22.795Z,48.68
2022-07-31T06:01:51.483Z,48.83
2022-07-31T06:04:19.980Z,48.86
2022-07-31T06:06:48.454Z,48.58
2022-07-31T06:09:16.929Z,48.65
2022-07-31T06:11:47.291Z,48.52
2022-07-31T06:14:15.735Z,48.39
2022-07-31T06:16:45.647Z,48.73
2022-07-31T06:19:14.304Z,48.78
2022-07-31T06:21:42.869Z,48.49
2022-07-31T06:24:11.446Z,50.01
2022-07-31T06:26:41.713Z,50.08
2022-07-31T06:29:12.881Z,49.62
2022-07-31T06:31:41.358Z,48.86
2022-07-31T06:34:12.434Z,48.61
2022-07-31T06:36:40.886Z,48.61
2022-07-31T06:39:09.471Z,48.84
2022-07-31T06:41:48.261Z,48.77
2022-07-31T06:44:19.352Z,48.38
2022-07-31T06:46:49.052Z,48.58
2022-07-31T06:49:18.327Z,48.63
2022-07-31T06:51:46.917Z,48.49
2022-07-31T06:54:15.395Z,48.86
2022-07-31T06:56:43.887Z,48.81
2022-07-31T06:59:12.997Z,48.77
2022-07-31T07:01:43.214Z,48.75
2022-07-31T07:04:11.713Z,48.65
2022-07-31T07:06:40.359Z,49.08
2022-07-31T07:09:08.845Z,49.39
2022-07-31T07:11:37.350Z,49.65
2022-07-31T07:14:05.771Z,48.82
2022-07-31T07:16:34.414Z,48.64
2022-07-31T07:19:04.235Z,50.17
2022-07-31T07:21:33.340Z,51.34
2022-07-31T07:24:01.927Z,51.90
2022-07-31T07:26:30.439Z,51.75
2022-07-31T07:28:59.605Z,51.80
2022-07-31T07:31:28.592Z,52.11
2022-07-31T07:33:57.097Z,52.89
2022-07-31T07:36:27.018Z,52.17
2022-07-31T07:38:56.475Z,52.62
2022-07-31T07:41:25.265Z,53.61
2022-07-31T07:43:54.087Z,53.52
2022-07-31T07:46:23.383Z,53.10
2022-07-31T07:48:52.193Z,53.23
2022-07-31T07:51:20.931Z,53.17
2022-07-31T07:53:50.839Z,53.63
2022-07-31T07:56:19.364Z,51.35
2022-07-31T07:58:49.233Z,49.47
2022-07-31T08:01:18.283Z,48.45
2022-07-31T08:03:51.746Z,48.56
2022-07-31T08:06:21.920Z,48.23
2022-07-31T08:08:51.781Z,48.65
2022-07-31T08:11:20.973Z,48.91
2022-07-31T08:13:50.901Z,48.57
2022-07-31T08:16:20.952Z,48.52
2022-07-31T08:18:49.564Z,48.89
2022-07-31T08:21:18.131Z,48.64
2022-07-31T08:23:47.455Z,49.08
2022-07-31T08:26:18.760Z,48.99
2022-07-31T08:28:49.806Z,49.04
2022-07-31T08:31:20.240Z,48.98
2022-07-31T08:33:50.157Z,48.68
2022-07-31T08:36:18.854Z,48.99
2022-07-31T08:38:47.356Z,48.57
2022-07-31T08:41:17.348Z,48.67
2022-07-31T08:44:02.370Z,48.71
2022-07-31T08:46:34.069Z,48.88
2022-07-31T08:49:03.796Z,48.88
2022-07-31T08:51:34.230Z,48.89
2022-07-31T08:54:20.218Z,48.89
2022-07-31T08:56:52.567Z,48.50
2022-07-31T08:59:22.158Z,48.61
2022-07-31T09:01:51.427Z,48.65
2022-07-31T09:04:20.018Z,49.01
2022-07-31T09:06:48.543Z,48.84
2022-07-31T09:09:17.949Z,48.79
2022-07-31T09:11:53.936Z,48.77
2022-07-31T09:14:30.605Z,48.60
2022-07-31T09:16:59.279Z,48.71
2022-07-31T09:19:52.081Z,48.78
2022-07-31T09:22:24.520Z,48.72
2022-07-31T09:24:53.255Z,48.86
2022-07-31T09:27:29.271Z,48.77
2022-07-31T09:29:59.052Z,48.83
2022-07-31T09:32:27.534Z,48.63
2022-07-31T09:34:56.110Z,48.80
2022-07-31T09:37:27.438Z,48.72
2022-07-31T09:39:57.245Z,49.37
2022-07-31T09:42:38.388Z,48.64
2022-07-31T09:45:21.828Z,49.00
2022-07-31T09:48:04.145Z,48.38
2022-07-31T09:50:32.878Z,48.77
2022-07-31T09:53:01.816Z,48.56
2022-07-31T09:55:30.434Z,48.75
2022-07-31T09:58:01.154Z,48.92
2022-07-31T10:00:29.911Z,48.49
2022-07-31T10:02:58.604Z,48.64
2022-07-31T10:05:28.527Z,49.05
2022-07-31T10:08:00.358Z,48.67
2022-07-31T10:10:30.219Z,48.81
2022-07-31T10:13:02.836Z,48.89
2022-07-31T10:15:31.267Z,49.06
2022-07-31T10:17:59.780Z,49.12
2022-07-31T10:20:28.497Z,49.35
2022-07-31T10:23:00.267Z,49.19
2022-07-31T10:25:29.935Z,48.90
2022-07-31T10:27:59.775Z,48.79
2022-07-31T10:30:28.947Z,48.56
2022-07-31T10:32:58.785Z,48.79
2022-07-31T10:35:27.447Z,49.33
2022-07-31T10:38:02.343Z,49.00
2022-07-31T10:40:36.542Z,49.06
2022-07-31T10:43:20.505Z,48.67
2022-07-31T10:45:50.485Z,48.55
2022-07-31T10:48:19.337Z,49.05
2022-07-31T10:50:48.100Z,48.87
2022-07-31T10:53:18.016Z,49.05
2022-07-31T10:55:46.925Z,49.71
2022-07-31T10:58:19.695Z,50.13
2022-07-31T11:00:48.415Z,49.18
2022-07-31T11:03:17.188Z,49.92
2022-07-31T11:06:04.195Z,50.99
2022-07-31T11:08:43.234Z,49.75
2022-07-31T11:11:12.511Z,51.29
2022-07-31T11:13:49.815Z,50.21
2022-07-31T11:16:18.438Z,49.73
2022-07-31T11:18:57.988Z,49.60
2022-07-31T11:21:38.661Z,50.04
2022-07-31T11:24:15.102Z,50.21
2022-07-31T11:26:50.532Z,49.81
2022-07-31T11:29:59.451Z,49.70
2022-07-31T11:32:25.309Z,51.71
2022-07-31T11:34:56.165Z,51.54
2022-07-31T11:37:25.812Z,50.41
2022-07-31T11:39:55.110Z,50.09
2022-07-31T11:42:27.787Z,50.09
2022-07-31T11:45:08.433Z,49.83
2022-07-31T11:48:12.395Z,51.30
2022-07-31T11:50:31.090Z,50.50
2022-07-31T11:53:07.075Z,52.56
2022-07-31T11:55:46.347Z,51.54
2022-07-31T11:58:16.718Z,51.24
2022-07-31T12:00:54.163Z,50.42
2022-07-31T12:03:24.287Z,51.05
2022-07-31T12:05:53.578Z,50.00
2022-07-31T12:08:22.523Z,50.15
2022-07-31T12:10:52.543Z,50.22
2022-07-31T12:13:21.840Z,49.57
2022-07-31T12:16:00.013Z,50.01
2022-07-31T12:18:29.587Z,50.20
2022-07-31T12:21:00.660Z,50.14
2022-07-31T12:23:41.306Z,51.08
2022-07-31T12:26:12.944Z,50.57
2022-07-31T12:28:41.684Z,50.46
2022-07-31T12:31:11.521Z,50.81
2022-07-31T12:33:43.670Z,50.24
2022-07-31T12:36:16.402Z,50.67
2022-07-31T12:38:48.407Z,50.42
2022-07-31T12:41:18.039Z,50.46
2022-07-31T12:43:51.427Z,50.57
2022-07-31T12:46:24.154Z,50.39
2022-07-31T12:48:52.649Z,50.42
2022-07-31T12:51:44.046Z,50.41
2022-07-31T12:54:10.197Z,50.34
2022-07-31T12:56:39.216Z,50.31
2022-07-31T12:59:08.328Z,50.08
2022-07-31T13:01:38.417Z,50.30
2022-07-31T13:04:18.674Z,50.26
2022-07-31T13:06:51.527Z,50.55
2022-07-31T13:09:20.567Z,50.32
2022-07-31T13:11:51.229Z,51.00
2022-07-31T13:14:23.652Z,50.75
2022-07-31T13:16:55.075Z,50.55
2022-07-31T13:19:23.632Z,50.06
2022-07-31T13:21:52.162Z,50.17
2022-07-31T13:24:25.341Z,49.92
2022-07-31T13:26:53.834Z,50.35
2022-07-31T13:29:22.340Z,50.31
2022-07-31T13:31:52.275Z,50.23
2022-07-31T13:34:20.836Z,50.03
2022-07-31T13:36:49.383Z,50.20
2022-07-31T13:39:18.045Z,49.73
2022-07-31T13:41:46.585Z,50.20
2022-07-31T13:44:15.239Z,49.97
2022-07-31T13:46:43.730Z,50.74
2022-07-31T13:49:14.102Z,50.69
2022-07-31T13:51:42.664Z,51.21
2022-07-31T13:54:11.629Z,51.09
2022-07-31T13:56:43.667Z,50.61
2022-07-31T13:59:13.759Z,50.88
2022-07-31T14:02:05.211Z,50.82
2022-07-31T14:04:38.636Z,51.28
2022-07-31T14:07:09.167Z,51.37
2022-07-31T14:09:37.994Z,51.34
2022-07-31T14:12:07.783Z,50.46
2022-07-31T14:14:38.264Z,51.36
2022-07-31T14:17:06.799Z,50.22
2022-07-31T14:19:40.625Z,50.85
2022-07-31T14:22:14.408Z,50.45
2022-07-31T14:24:49.384Z,50.35
2022-07-31T14:27:19.928Z,50.30
2022-07-31T14:29:48.743Z,51.48
2022-07-31T14:32:17.313Z,51.53
2022-07-31T14:34:47.258Z,51.45
2022-07-31T14:37:15.821Z,51.87
2022-07-31T14:39:44.298Z,51.61
2022-07-31T14:42:12.950Z,51.98
2022-07-31T14:44:42.817Z,51.50
2022-07-31T14:47:11.413Z,51.68
2022-07-31T14:50:07.222Z,51.63
2022-07-31T14:52:30.002Z,51.76
2022-07-31T14:54:59.603Z,52.24
2022-07-31T14:57:28.242Z,52.08
2022-07-31T14:59:59.008Z,51.67
2022-07-31T15:02:28.067Z,51.75
2022-07-31T15:04:56.563Z,51.59
2022-07-31T15:07:46.271Z,51.69
2022-07-31T15:10:15.223Z,51.86
2022-07-31T15:12:43.821Z,51.56
2022-07-31T15:15:12.833Z,51.83
2022-07-31T15:17:41.358Z,51.72
2022-07-31T15:20:11.237Z,51.88
2022-07-31T15:22:39.767Z,51.69
2022-07-31T15:25:10.249Z,51.83
2022-07-31T15:27:40.218Z,51.37
2022-07-31T15:30:10.340Z,51.31
2022-07-31T15:32:39.957Z,51.89
2022-07-31T15:35:10.201Z,51.72
2022-07-31T15:37:39.299Z,51.41
2022-07-31T15:40:10.355Z,51.46
2022-07-31T15:42:41.762Z,51.54
2022-07-31T15:45:12.300Z,51.72
2022-07-31T15:47:40.831Z,51.15
2022-07-31T15:50:11.094Z,51.12
2022-07-31T15:52:39.537Z,51.03
2022-07-31T15:55:09.831Z,51.37
2022-07-31T15:57:39.789Z,50.99
2022-07-31T16:00:10.808Z,51.31
2022-07-31T16:02:39.554Z,51.31
2022-07-31T16:05:15.206Z,51.27
2022-07-31T16:08:28.799Z,51.09
2022-07-31T16:10:39.568Z,50.72
2022-07-31T16:13:09.705Z,50.59
2022-07-31T16:15:38.696Z,50.82
2022-07-31T16:18:07.310Z,51.42
2022-07-31T16:20:38.272Z,51.64
2022-07-31T16:23:06.693Z,50.78
2022-07-31T16:25:35.667Z,51.40
2022-07-31T16:28:04.204Z,50.63
2022-07-31T16:30:34.365Z,50.65
2022-07-31T16:33:03.261Z,50.93
2022-07-31T16:35:31.695Z,51.32
2022-07-31T16:38:00.120Z,50.83
2022-07-31T16:40:31.884Z,50.73
2022-07-31T16:43:47.734Z,50.56
2022-07-31T16:45:54.286Z,50.49
2022-07-31T16:48:22.759Z,50.41
2022-07-31T16:50:54.067Z,50.36
2022-07-31T16:54:11.526Z,50.15
2022-07-31T16:56:12.489Z,50.31
2022-07-31T16:58:41.040Z,50.70
2022-07-31T17:01:58.573Z,50.57
2022-07-31T17:04:03.693Z,50.36
2022-07-31T17:06:35.171Z,50.11
2022-07-31T17:09:16.129Z,50.84
2022-07-31T17:11:47.395Z,50.09
2022-07-31T17:14:16.210Z,50.19
2022-07-31T17:16:48.024Z,50.36
2022-07-31T17:19:36.049Z,50.03
2022-07-31T17:22:07.417Z,50.12
2022-07-31T17:24:37.810Z,49.71
2022-07-31T17:27:07.897Z,50.05
2022-07-31T17:29:36.995Z,49.95
2022-07-31T17:32:07.220Z,50.29
2022-07-31T17:34:36.363Z,49.88
2022-07-31T17:37:05.489Z,50.14
2022-07-31T17:39:34.510Z,49.50
2022-07-31T17:42:02.968Z,49.89
2022-07-31T17:44:31.428Z,51.11
2022-07-31T17:47:03.730Z,52.16
2022-07-31T17:49:35.351Z,50.44
2022-07-31T17:52:03.867Z,50.58
2022-07-31T17:54:32.759Z,49.73
2022-07-31T17:57:01.547Z,50.30
2022-07-31T17:59:30.064Z,49.65
2022-07-31T18:02:00.770Z,49.76
2022-07-31T18:04:29.657Z,49.37
2022-07-31T18:06:59.861Z,49.74
2022-07-31T18:09:28.792Z,50.14
2022-07-31T18:11:57.471Z,49.88
2022-07-31T18:14:25.998Z,49.51
2022-07-31T18:16:54.497Z,49.99
2022-07-31T18:19:23.113Z,49.23
2022-07-31T18:21:51.929Z,49.71
2022-07-31T18:24:21.831Z,49.76
2022-07-31T18:26:50.527Z,49.38
2022-07-31T18:29:18.986Z,49.15
2022-07-31T18:31:47.808Z,49.80
2022-07-31T18:34:16.336Z,49.38
2022-07-31T18:36:44.951Z,49.61
2022-07-31T18:39:13.399Z,49.57
2022-07-31T18:41:48.295Z,49.56
2022-07-31T18:44:17.601Z,49.50
2022-07-31T18:46:46.063Z,49.67
2022-07-31T18:51:02.048Z,49.68
2022-07-31T18:52:03.294Z,49.64
2022-07-31T18:54:32.185Z,49.70
2022-07-31T18:57:03.546Z,49.84
2022-07-31T18:59:32.136Z,49.69
2022-07-31T19:02:00.760Z,49.77
2022-07-31T19:04:29.666Z,49.55
2022-07-31T19:06:58.155Z,49.58
2022-07-31T19:09:26.655Z,49.65
2022-07-31T19:11:58.474Z,49.48
2022-07-31T19:14:28.734Z,49.49
2022-07-31T19:16:59.908Z,49.51
2022-07-31T19:19:31.748Z,49.59
2022-07-31T19:22:17.081Z,49.57
2022-07-31T19:24:45.517Z,49.23
2022-07-31T19:27:13.978Z,49.95
2022-07-31T19:32:12.752Z,50.76
2022-07-31T19:34:42.098Z,49.74
2022-07-31T19:37:16.614Z,49.84
2022-07-31T19:39:45.131Z,49.64
2022-07-31T19:42:13.639Z,49.54
2022-07-31T19:44:43.683Z,49.35
2022-07-31T19:47:12.127Z,49.50
2022-07-31T19:49:43.126Z,49.23
2022-07-31T19:52:11.661Z,49.12
2022-07-31T19:54:40.394Z,49.28
2022-07-31T19:57:09.134Z,49.19
2022-07-31T19:59:37.646Z,49.52
2022-07-31T20:02:08.611Z,49.17
2022-07-31T20:04:37.866Z,49.47
2022-07-31T20:07:07.285Z,49.67
2022-07-31T20:09:38.205Z,49.24
2022-07-31T20:12:08.141Z,49.12
2022-07-31T20:14:36.950Z,49.23
2022-07-31T20:17:05.431Z,49.18
2022-07-31T20:19:35.495Z,49.11
2022-07-31T20:22:24.756Z,49.25
2022-07-31T20:24:53.345Z,49.41
2022-07-31T20:27:21.887Z,49.17
2022-07-31T20:29:50.401Z,49.52
2022-07-31T20:32:18.937Z,49.06
2022-07-31T20:34:51.637Z,49.40
2022-07-31T20:37:20.144Z,49.48
2022-07-31T20:39:48.572Z,49.58
2022-07-31T20:42:17.022Z,49.63
2022-07-31T20:44:45.456Z,49.53
2022-07-31T20:47:14.625Z,49.46
2022-07-31T20:49:43.159Z,49.53
2022-07-31T20:52:13.044Z,49.67
2022-07-31T20:54:41.542Z,49.54
2022-07-31T20:57:10.073Z,49.36
2022-07-31T20:59:38.545Z,49.50
2022-07-31T21:02:07.328Z,49.25
2022-07-31T21:04:35.914Z,49.48
2022-07-31T21:07:04.387Z,49.48
2022-07-31T21:09:34.265Z,49.47
2022-07-31T21:12:03.271Z,49.42
2022-07-31T21:14:32.088Z,49.78
2022-07-31T21:17:00.802Z,49.71
2022-07-31T21:19:29.396Z,49.45
2022-07-31T21:21:57.823Z,49.90
2022-07-31T21:24:26.975Z,49.83
2022-07-31T21:26:57.924Z,49.87
2022-07-31T21:29:27.163Z,49.66
2022-07-31T21:31:57.550Z,49.53
2022-07-31T21:34:26.694Z,49.27
2022-07-31T21:36:55.504Z,49.46
2022-07-31T21:39:26.003Z,49.59
2022-07-31T21:41:56.785Z,49.42
2022-07-31T21:44:25.893Z,49.49
2022-07-31T21:46:55.746Z,49.66
2022-07-31T21:49:25.889Z,49.69
2022-07-31T21:51:55.203Z,49.60
2022-07-31T21:54:23.672Z,49.44
2022-07-31T21:56:52.112Z,49.77
2022-07-31T21:59:21.949Z,49.51
2022-07-31T22:01:58.131Z,49.63
2022-07-31T22:04:29.866Z,49.72
2022-07-31T22:07:20.711Z,49.28
2022-07-31T22:09:49.157Z,49.43
2022-07-31T22:12:17.575Z,49.36
2022-07-31T22:14:47.915Z,49.99
2022-07-31T22:17:16.398Z,49.80
2022-07-31T22:19:47.113Z,49.74
2022-07-31T22:22:17.168Z,49.81
2022-07-31T22:24:46.288Z,49.63
2022-07-31T22:27:33.145Z,50.04
2022-07-31T22:30:03.193Z,49.55
2022-07-31T22:32:32.120Z,49.90
2022-07-31T22:35:00.707Z,49.85
2022-07-31T22:37:32.789Z,49.57
2022-07-31T22:40:01.889Z,49.97
2022-07-31T22:42:30.561Z,49.75
2022-07-31T22:44:59.320Z,49.66
2022-07-31T22:47:30.252Z,49.78
2022-07-31T22:49:59.257Z,49.51
2022-07-31T22:52:34.639Z,49.77
2022-07-31T22:55:06.269Z,49.62
2022-07-31T22:57:34.714Z,49.71
2022-07-31T23:00:03.477Z,49.81
2022-07-31T23:02:33.289Z,49.82
2022-07-31T23:05:02.024Z,49.85
2022-07-31T23:07:30.551Z,49.38
2022-07-31T23:09:59.002Z,49.73
2022-07-31T23:12:28.233Z,49.38
2022-07-31T23:14:58.282Z,49.63
2022-07-31T23:17:26.774Z,49.39
2022-07-31T23:19:56.651Z,49.60
2022-07-31T23:22:33.493Z,49.60
2022-07-31T23:25:03.092Z,49.81
2022-07-31T23:27:31.662Z,49.93
2022-07-31T23:30:00.282Z,49.70
2022-07-31T23:32:28.898Z,49.99
2022-07-31T23:34:58.716Z,49.92
2022-07-31T23:37:27.167Z,50.43
2022-07-31T23:39:55.583Z,50.35
2022-07-31T23:42:38.105Z,50.75
2022-07-31T23:45:08.579Z,50.05
2022-07-31T23:47:45.570Z,50.60
2022-07-31T23:50:16.240Z,50.42
2022-07-31T23:52:44.665Z,49.92
2022-07-31T23:55:13.218Z,50.49
2022-07-31T23:57:41.802Z,50.71
